Terminal Aerodrome Forecast
Issued by NWS Kansas City/Pleasant Hill, MO

Home | Current Version | Previous Version | Text Only | Print | Product List | Glossary On
Versions: 1 2 3 4 5 6 7 8 9 10 11 12 13 14 15 16 17 18 19 20 21
000
FTUS43 KEAX 121700
TAFMCI
TAF
KMCI 121727Z 1218/1318 36010KT P6SM VCSH SCT011 BKN018 OVC025
      TEMPO 1218/1220 -RA
     FM122000 01010KT P6SM BKN025
     FM130300 01004KT P6SM SKC
     FM130900 VRB05KT 5SM BR SCT001=

USA.gov is the U.S. government's official web portal to all federal, state and local government web resources and services.